Hamnavoe — VSTY7 — position and weather

sailwx.info

Track history (hours):
 
Tides and Currents Weather Stations Pressure Air Temp Water Temp Dewpoint Dewpoint Depression Visibility Wind Speed Wind Dir Waves Ship Positions

Hamnavoe

Operator: NorthLink Orkey & Shetland Ferries Ltd

Last reported at 2014-Aug-21 09:33 UTC. Time now 2014-Aug-21 10:11 UTC.
Position N 58°58' W 003°18'.

Length 112 m; draft 4.4 m.

Type: Ship. MMSI: 235449000.

Date/timePositionNaut miles runAvg speedWind from/ knotsBaromVisibWave heightAir tempDewpointWater temp
2014-Aug-21 09:33N 58°58' W 003°18'8 8.2
2014-Aug-21 08:33N 58°52' W 003°28'8 4.0
2014-Aug-21 06:33N 58°44' W 003°30'1515.3
2014-Aug-21 05:33N 58°57' W 003°18'0 0.3
2014-Aug-21 04:33N 58°58' W 003°18'0 0.0
2014-Aug-21 03:33N 58°58' W 003°18'0 0.0
2014-Aug-21 02:33N 58°58' W 003°18'0 0.0
2014-Aug-21 01:33N 58°58' W 003°18'0 0.0
2014-Aug-21 00:33N 58°58' W 003°18'0 0.0
2014-Aug-20 23:33N 58°58' W 003°18'0 0.0
2014-Aug-20 22:33N 58°58' W 003°18'0 0.0
2014-Aug-20 21:33N 58°58' W 003°18'0 0.0
2014-Aug-20 20:33N 58°58' W 003°18'0 0.0
2014-Aug-20 19:33N 58°58' W 003°18'1212.1
2014-Aug-20 18:33N 58°47' W 003°29'0 0.2
2014-Aug-20 16:33N 58°47' W 003°28'11 3.5
2014-Aug-20 13:33N 58°57' W 003°19'1616.0
2014-Aug-20 12:33N 58°42' W 003°30'2 1.4
2014-Aug-20 11:11N 58°40' W 003°31'1218.1
2014-Aug-20 10:33N 58°51' W 003°28'8 8.3
2014-Aug-20 09:33N 58°58' W 003°18'9 8.7
2014-Aug-20 08:34N 58°51' W 003°28'7 3.6
2014-Aug-20 06:33N 58°44' W 003°31'1515.2
2014-Aug-20 05:33N 58°57' W 003°18'0 0.3
2014-Aug-20 04:26N 58°58' W 003°18'0 0.0
2014-Aug-20 03:26N 58°58' W 003°18'0 0.0
2014-Aug-20 01:32N 58°58' W 003°18'0 0.0
2014-Aug-20 00:26N 58°58' W 003°18'0 0.0
2014-Aug-19 22:26N 58°58' W 003°18'0 0.0
2014-Aug-19 19:33N 58°58' W 003°18'1313.0
2014-Aug-19 18:33N 58°46' W 003°29'1 0.5
2014-Aug-19 16:33N 58°47' W 003°29'11 3.6
2014-Aug-19 13:33N 58°57' W 003°20'1515.2
2014-Aug-19 12:33N 58°43' W 003°31'5 4.7
2014-Aug-19 11:23N 58°37' W 003°32'1518.1
2014-Aug-19 10:34N 58°52' W 003°28'8 7.8
2014-Aug-19 09:33N 58°58' W 003°18'10 9.8
2014-Aug-19 08:33N 58°50' W 003°29'1310.1
2014-Aug-19 07:14N 58°37' W 003°32'711.0
2014-Aug-19 06:33N 58°44' W 003°30'1515.0
2014-Aug-19 05:33N 58°58' W 003°18'0 0.2
2014-Aug-19 04:23N 58°58' W 003°18'0 0.0
2014-Aug-19 03:29N 58°58' W 003°18'0 0.0
2014-Aug-19 02:29N 58°58' W 003°18'0 0.0
2014-Aug-19 01:29N 58°58' W 003°18'0 0.0
2014-Aug-19 00:29N 58°58' W 003°18'0 0.0
2014-Aug-18 23:29N 58°58' W 003°18'0 0.0
2014-Aug-18 22:29N 58°58' W 003°18'0 0.0
2014-Aug-18 21:29N 58°58' W 003°18'0 0.0
2014-Aug-18 20:29N 58°58' W 003°18'0 0.5
2014-Aug-18 19:33N 58°57' W 003°18'1313.4
2014-Aug-18 18:33N 58°45' W 003°29'8 5.3
2014-Aug-18 17:07N 58°38' W 003°31'1018.2
2014-Aug-18 16:33N 58°48' W 003°30'1111.2
2014-Aug-18 15:31N 58°58' W 003°18'0 0.0
2014-Aug-18 14:33N 58°58' W 003°18'7 6.7
2014-Aug-18 13:33N 58°52' W 003°11'1414.5
2014-Aug-18 12:33N 58°40' W 003°27'2 1.8
2014-Aug-18 11:25N 58°40' W 003°30'1618.3
2014-Aug-18 10:33N 58°55' W 003°26'5 5.2
2014-Aug-18 09:33N 58°58' W 003°18'1211.7
2014-Aug-18 08:34N 58°49' W 003°32'1212.2
2014-Aug-18 07:33N 58°37' W 003°32'8 7.9
2014-Aug-18 06:33N 58°44' W 003°30'1514.5
2014-Aug-18 05:33N 58°58' W 003°18'0 0.2
2014-Aug-18 04:29N 58°58' W 003°18'0 0.0
2014-Aug-18 03:29N 58°58' W 003°18'0 0.0
2014-Aug-18 02:17N 58°58' W 003°18'0 0.0
2014-Aug-18 01:29N 58°58' W 003°18'0 0.0
2014-Aug-18 00:29N 58°58' W 003°18'15 2.5
2014-Aug-17 18:33N 58°45' W 003°30'4 1.8
2014-Aug-17 16:33N 58°48' W 003°28'1111.1
2014-Aug-17 15:33N 58°58' W 003°18'0 0.0
2014-Aug-17 14:31N 58°58' W 003°18'0 0.0
2014-Aug-17 13:31N 58°58' W 003°18'1 1.4
2014-Aug-17 12:33N 58°57' W 003°16'1312.2
2014-Aug-17 11:30N 58°44' W 003°18'10 5.4
2014-Aug-17 09:33N 58°37' W 003°32'1515.2
2014-Aug-17 08:34N 58°52' W 003°28'8 8.1
2014-Aug-17 07:33N 58°58' W 003°18'0 0.0
2014-Aug-17 06:33N 58°58' W 003°18'0 0.0
2014-Aug-17 05:33N 58°58' W 003°18'0 0.0
2014-Aug-17 04:31N 58°58' W 003°18'0 0.0
2014-Aug-17 03:33N 58°58' W 003°18'0 0.0
2014-Aug-17 02:33N 58°58' W 003°18'0 0.0
2014-Aug-17 01:33N 58°58' W 003°18'0 0.0
2014-Aug-17 00:33N 58°58' W 003°18'0 0.0
2014-Aug-16 23:33N 58°58' W 003°18'0 0.0
2014-Aug-16 22:33N 58°58' W 003°18'0 0.0
2014-Aug-16 21:33N 58°58' W 003°18'0 0.0
2014-Aug-16 20:33N 58°58' W 003°18'0 0.1
2014-Aug-16 19:34N 58°58' W 003°18'1514.7
2014-Aug-16 18:33N 58°44' W 003°30'6 4.2
2014-Aug-16 17:12N 58°39' W 003°32'1217.9
2014-Aug-16 16:33N 58°50' W 003°29'10 7.6
2014-Aug-16 15:18N 58°58' W 003°18'0 0.0
2014-Aug-16 14:30N 58°58' W 003°18'7 7.4
2014-Aug-16 13:33N 58°52' W 003°11'1615.7
2014-Aug-16 12:33N 58°39' W 003°28'2 1.5
2014-Aug-16 11:26N 58°40' W 003°31'1517.5
2014-Aug-16 10:33N 58°55' W 003°26'5 4.8
2014-Aug-16 09:33N 58°58' W 003°18'10 9.6
2014-Aug-16 08:33N 58°50' W 003°29'1310.7
2014-Aug-16 07:18N 58°37' W 003°32'810.8
2014-Aug-16 06:33N 58°45' W 003°30'1414.4
2014-Aug-16 05:34N 58°58' W 003°18'0 0.3
2014-Aug-16 04:31N 58°58' W 003°18'0 0.0
2014-Aug-16 03:31N 58°58' W 003°18'0 0.0
2014-Aug-16 02:31N 58°58' W 003°18'0 0.0
2014-Aug-16 00:10N 58°58' W 003°18'0 0.0
2014-Aug-15 23:28N 58°58' W 003°18'0 0.0
2014-Aug-15 22:31N 58°58' W 003°18'0 0.0
2014-Aug-15 21:31N 58°58' W 003°18'0 0.0
2014-Aug-15 20:31N 58°58' W 003°18'0 0.0
2014-Aug-15 19:33N 58°58' W 003°18'1414.3
2014-Aug-15 18:33N 58°45' W 003°30'3 1.5
2014-Aug-15 16:33N 58°48' W 003°29'11 3.6
2014-Aug-15 13:33N 58°57' W 003°18'1515.4
2014-Aug-15 12:33N 58°43' W 003°31'1 0.5
2014-Aug-15 11:12N 58°42' W 003°30'1219.0
2014-Aug-15 10:33N 58°54' W 003°26'6 4.5
2014-Aug-15 09:20N 58°58' W 003°18'1012.5
2014-Aug-15 08:33N 58°50' W 003°28'5 2.4
2014-Aug-15 06:33N 58°45' W 003°30'1414.1
2014-Aug-15 05:33N 58°58' W 003°18'0 0.2
2014-Aug-15 04:33N 58°58' W 003°18'0 0.0
2014-Aug-15 03:33N 58°58' W 003°18'0 0.0
2014-Aug-15 02:33N 58°58' W 003°18'0 0.0
2014-Aug-15 01:32N 58°58' W 003°18'0 0.0
2014-Aug-15 00:33N 58°58' W 003°18'0 0.0
2014-Aug-14 23:32N 58°58' W 003°18'0 0.0
2014-Aug-14 22:33N 58°58' W 003°18'0 0.0
2014-Aug-14 21:33N 58°58' W 003°18'0 0.0
2014-Aug-14 20:33N 58°58' W 003°18'0 0.1
2014-Aug-14 19:33N 58°58' W 003°18'1414.3
2014-Aug-14 18:33N 58°45' W 003°30'4 1.9
2014-Aug-14 16:33N 58°48' W 003°29'1110.2
2014-Aug-14 15:29N 58°58' W 003°18'1 0.5
2014-Aug-14 13:33N 58°57' W 003°18'1515.2
2014-Aug-14 12:33N 58°43' W 003°30'3 2.2
2014-Aug-14 11:18N 58°40' W 003°31'1419.0
2014-Aug-14 10:33N 58°54' W 003°27'6 6.0
2014-Aug-14 09:33N 58°58' W 003°18'10 9.7
2014-Aug-14 08:33N 58°50' W 003°28'1313.3
2014-Aug-14 07:33N 58°37' W 003°32'8 8.4
2014-Aug-14 06:33N 58°45' W 003°30'1414.2
2014-Aug-14 05:33N 58°58' W 003°18'0 0.2
2014-Aug-14 04:33N 58°58' W 003°18'0 0.0
2014-Aug-14 03:33N 58°58' W 003°18'0 0.0
2014-Aug-14 02:33N 58°58' W 003°18'0 0.0
2014-Aug-14 01:33N 58°58' W 003°18'0 0.0
2014-Aug-14 00:33N 58°58' W 003°18'0 0.0
2014-Aug-13 23:33N 58°58' W 003°18'0 0.0
2014-Aug-13 22:33N 58°58' W 003°18'0 0.0
2014-Aug-13 21:33N 58°58' W 003°18'0 0.0
2014-Aug-13 20:33N 58°58' W 003°18'0 0.0
2014-Aug-13 19:33N 58°58' W 003°18'1212.4
2014-Aug-13 18:33N 58°47' W 003°29'0 0.2
2014-Aug-13 16:34N 58°47' W 003°29'1212.1
2014-Aug-13 15:33N 58°58' W 003°18'0 0.0
2014-Aug-13 14:33N 58°58' W 003°18'7 6.5
2014-Aug-13 13:33N 58°52' W 003°11'1313.2
2014-Aug-13 12:33N 58°41' W 003°25'3 1.9
2014-Aug-13 11:13N 58°42' W 003°30'1218.8
2014-Aug-13 10:34N 58°54' W 003°26'6 5.7
2014-Aug-13 09:33N 58°58' W 003°18'1212.1
2014-Aug-13 08:33N 58°47' W 003°09'1615.6
2014-Aug-13 07:33N 58°37' W 003°32'8 7.7
2014-Aug-13 06:33N 58°44' W 003°30'1514.9
2014-Aug-13 05:33N 58°58' W 003°18'0 0.2
2014-Aug-13 04:33N 58°58' W 003°18'0 0.0
2014-Aug-13 03:33N 58°58' W 003°18'0 0.0
2014-Aug-13 02:33N 58°58' W 003°18'0 0.0
2014-Aug-13 01:33N 58°58' W 003°18'0 0.0
2014-Aug-13 00:33N 58°58' W 003°18'0 0.0
2014-Aug-12 23:33N 58°58' W 003°18'0 0.0
2014-Aug-12 22:34N 58°58' W 003°18'0 0.0
2014-Aug-12 21:34N 58°58' W 003°18'0 0.0
2014-Aug-12 20:33N 58°58' W 003°18'0 0.0
2014-Aug-12 19:33N 58°58' W 003°18'1313.3
2014-Aug-12 18:33N 58°46' W 003°30'10 9.4
2014-Aug-12 17:33N 58°37' W 003°32'1413.9
2014-Aug-12 16:33N 58°50' W 003°29'9 9.2
2014-Aug-12 15:32N 58°58' W 003°18'0 0.0
2014-Aug-12 14:33N 58°58' W 003°18'1 1.0
2014-Aug-12 13:33N 58°57' W 003°18'1515.4
2014-Aug-12 12:33N 58°43' W 003°30'2 1.4
2014-Aug-12 11:13N 58°41' W 003°31'1218.7
2014-Aug-12 10:33N 58°53' W 003°28'7 6.9
2014-Aug-12 09:33N 58°58' W 003°18'1010.0
2014-Aug-12 08:33N 58°50' W 003°29'6 2.8
2014-Aug-12 06:33N 58°44' W 003°30'1515.1
2014-Aug-12 05:34N 58°58' W 003°18'0 0.3
2014-Aug-12 04:30N 58°58' W 003°18'0 0.0
2014-Aug-12 03:33N 58°58' W 003°18'0 0.0
2014-Aug-12 02:33N 58°58' W 003°18'0 0.0
2014-Aug-12 01:33N 58°58' W 003°18'0 0.0
2014-Aug-12 00:33N 58°58' W 003°18'0 0.0
2014-Aug-11 23:30N 58°58' W 003°18'0 0.0
2014-Aug-11 22:33N 58°58' W 003°18'0 0.0
2014-Aug-11 21:33N 58°58' W 003°18'0 0.0
2014-Aug-11 20:30N 58°58' W 003°18'0 0.0
2014-Aug-11 19:33N 58°58' W 003°18'1211.8
2014-Aug-11 18:33N 58°48' W 003°29'2 0.9
2014-Aug-11 16:33N 58°46' W 003°30'11 3.7
2014-Aug-11 13:33N 58°56' W 003°23'1717.2
2014-Aug-11 12:33N 58°40' W 003°31'1 0.6
2014-Aug-11 11:12N 58°41' W 003°31'1218.6
2014-Aug-11 10:33N 58°53' W 003°27'  
Track history (hours):
 
Tides and Currents Weather Stations Pressure Air Temp Water Temp Dewpoint Dewpoint Depression Visibility Wind Speed Wind Dir Waves Ship Positions

Hamnavoe

Operator: NorthLink Orkey & Shetland Ferries Ltd

Last reported at 2014-Aug-21 09:33 UTC. Time now 2014-Aug-21 10:11 UTC.
Position N 58°58' W 003°18'.

Length 112 m; draft 4.4 m.

Type: Ship. MMSI: 235449000.

Date/timePositionNaut miles runAvg speedWind from/ knotsBaromVisibWave heightAir tempDewpointWater temp
2014-Aug-21 09:33N 58°58' W 003°18'8 8.2
2014-Aug-21 08:33N 58°52' W 003°28'8 4.0
2014-Aug-21 06:33N 58°44' W 003°30'1515.3
2014-Aug-21 05:33N 58°57' W 003°18'0 0.3
2014-Aug-21 04:33N 58°58' W 003°18'0 0.0
2014-Aug-21 03:33N 58°58' W 003°18'0 0.0
2014-Aug-21 02:33N 58°58' W 003°18'0 0.0
2014-Aug-21 01:33N 58°58' W 003°18'0 0.0
2014-Aug-21 00:33N 58°58' W 003°18'0 0.0
2014-Aug-20 23:33N 58°58' W 003°18'0 0.0
2014-Aug-20 22:33N 58°58' W 003°18'0 0.0
2014-Aug-20 21:33N 58°58' W 003°18'0 0.0
2014-Aug-20 20:33N 58°58' W 003°18'0 0.0
2014-Aug-20 19:33N 58°58' W 003°18'1212.1
2014-Aug-20 18:33N 58°47' W 003°29'0 0.2
2014-Aug-20 16:33N 58°47' W 003°28'11 3.5
2014-Aug-20 13:33N 58°57' W 003°19'1616.0
2014-Aug-20 12:33N 58°42' W 003°30'2 1.4
2014-Aug-20 11:11N 58°40' W 003°31'1218.1
2014-Aug-20 10:33N 58°51' W 003°28'8 8.3
2014-Aug-20 09:33N 58°58' W 003°18'9 8.7
2014-Aug-20 08:34N 58°51' W 003°28'7 3.6
2014-Aug-20 06:33N 58°44' W 003°31'1515.2
2014-Aug-20 05:33N 58°57' W 003°18'0 0.3
2014-Aug-20 04:26N 58°58' W 003°18'0 0.0
2014-Aug-20 03:26N 58°58' W 003°18'0 0.0
2014-Aug-20 01:32N 58°58' W 003°18'0 0.0
2014-Aug-20 00:26N 58°58' W 003°18'0 0.0
2014-Aug-19 22:26N 58°58' W 003°18'0 0.0
2014-Aug-19 19:33N 58°58' W 003°18'1313.0
2014-Aug-19 18:33N 58°46' W 003°29'1 0.5
2014-Aug-19 16:33N 58°47' W 003°29'11 3.6
2014-Aug-19 13:33N 58°57' W 003°20'1515.2
2014-Aug-19 12:33N 58°43' W 003°31'5 4.7
2014-Aug-19 11:23N 58°37' W 003°32'1518.1
2014-Aug-19 10:34N 58°52' W 003°28'8 7.8
2014-Aug-19 09:33N 58°58' W 003°18'10 9.8
2014-Aug-19 08:33N 58°50' W 003°29'1310.1
2014-Aug-19 07:14N 58°37' W 003°32'711.0
2014-Aug-19 06:33N 58°44' W 003°30'1515.0
2014-Aug-19 05:33N 58°58' W 003°18'0 0.2
2014-Aug-19 04:23N 58°58' W 003°18'0 0.0
2014-Aug-19 03:29N 58°58' W 003°18'0 0.0
2014-Aug-19 02:29N 58°58' W 003°18'0 0.0
2014-Aug-19 01:29N 58°58' W 003°18'0 0.0
2014-Aug-19 00:29N 58°58' W 003°18'0 0.0
2014-Aug-18 23:29N 58°58' W 003°18'0 0.0
2014-Aug-18 22:29N 58°58' W 003°18'0 0.0
2014-Aug-18 21:29N 58°58' W 003°18'0 0.0
2014-Aug-18 20:29N 58°58' W 003°18'0 0.5
2014-Aug-18 19:33N 58°57' W 003°18'1313.4
2014-Aug-18 18:33N 58°45' W 003°29'8 5.3
2014-Aug-18 17:07N 58°38' W 003°31'1018.2
2014-Aug-18 16:33N 58°48' W 003°30'1111.2
2014-Aug-18 15:31N 58°58' W 003°18'0 0.0
2014-Aug-18 14:33N 58°58' W 003°18'7 6.7
2014-Aug-18 13:33N 58°52' W 003°11'1414.5
2014-Aug-18 12:33N 58°40' W 003°27'2 1.8
2014-Aug-18 11:25N 58°40' W 003°30'1618.3
2014-Aug-18 10:33N 58°55' W 003°26'5 5.2
2014-Aug-18 09:33N 58°58' W 003°18'1211.7
2014-Aug-18 08:34N 58°49' W 003°32'1212.2
2014-Aug-18 07:33N 58°37' W 003°32'8 7.9
2014-Aug-18 06:33N 58°44' W 003°30'1514.5
2014-Aug-18 05:33N 58°58' W 003°18'0 0.2
2014-Aug-18 04:29N 58°58' W 003°18'0 0.0
2014-Aug-18 03:29N 58°58' W 003°18'0 0.0
2014-Aug-18 02:17N 58°58' W 003°18'0 0.0
2014-Aug-18 01:29N 58°58' W 003°18'0 0.0
2014-Aug-18 00:29N 58°58' W 003°18'15 2.5
2014-Aug-17 18:33N 58°45' W 003°30'4 1.8
2014-Aug-17 16:33N 58°48' W 003°28'1111.1
2014-Aug-17 15:33N 58°58' W 003°18'0 0.0
2014-Aug-17 14:31N 58°58' W 003°18'0 0.0
2014-Aug-17 13:31N 58°58' W 003°18'1 1.4
2014-Aug-17 12:33N 58°57' W 003°16'1312.2
2014-Aug-17 11:30N 58°44' W 003°18'10 5.4
2014-Aug-17 09:33N 58°37' W 003°32'1515.2
2014-Aug-17 08:34N 58°52' W 003°28'8 8.1
2014-Aug-17 07:33N 58°58' W 003°18'0 0.0
2014-Aug-17 06:33N 58°58' W 003°18'0 0.0
2014-Aug-17 05:33N 58°58' W 003°18'0 0.0
2014-Aug-17 04:31N 58°58' W 003°18'0 0.0
2014-Aug-17 03:33N 58°58' W 003°18'0 0.0
2014-Aug-17 02:33N 58°58' W 003°18'0 0.0
2014-Aug-17 01:33N 58°58' W 003°18'0 0.0
2014-Aug-17 00:33N 58°58' W 003°18'0 0.0
2014-Aug-16 23:33N 58°58' W 003°18'0 0.0
2014-Aug-16 22:33N 58°58' W 003°18'0 0.0
2014-Aug-16 21:33N 58°58' W 003°18'0 0.0
2014-Aug-16 20:33N 58°58' W 003°18'0 0.1
2014-Aug-16 19:34N 58°58' W 003°18'1514.7
2014-Aug-16 18:33N 58°44' W 003°30'6 4.2
2014-Aug-16 17:12N 58°39' W 003°32'1217.9
2014-Aug-16 16:33N 58°50' W 003°29'10 7.6
2014-Aug-16 15:18N 58°58' W 003°18'0 0.0
2014-Aug-16 14:30N 58°58' W 003°18'7 7.4
2014-Aug-16 13:33N 58°52' W 003°11'1615.7
2014-Aug-16 12:33N 58°39' W 003°28'2 1.5
2014-Aug-16 11:26N 58°40' W 003°31'1517.5
2014-Aug-16 10:33N 58°55' W 003°26'5 4.8
2014-Aug-16 09:33N 58°58' W 003°18'10 9.6
2014-Aug-16 08:33N 58°50' W 003°29'1310.7
2014-Aug-16 07:18N 58°37' W 003°32'810.8
2014-Aug-16 06:33N 58°45' W 003°30'1414.4
2014-Aug-16 05:34N 58°58' W 003°18'0 0.3
2014-Aug-16 04:31N 58°58' W 003°18'0 0.0
2014-Aug-16 03:31N 58°58' W 003°18'0 0.0
2014-Aug-16 02:31N 58°58' W 003°18'0 0.0
2014-Aug-16 00:10N 58°58' W 003°18'0 0.0
2014-Aug-15 23:28N 58°58' W 003°18'0 0.0
2014-Aug-15 22:31N 58°58' W 003°18'0 0.0
2014-Aug-15 21:31N 58°58' W 003°18'0 0.0
2014-Aug-15 20:31N 58°58' W 003°18'0 0.0
2014-Aug-15 19:33N 58°58' W 003°18'1414.3
2014-Aug-15 18:33N 58°45' W 003°30'3 1.5
2014-Aug-15 16:33N 58°48' W 003°29'11 3.6
2014-Aug-15 13:33N 58°57' W 003°18'1515.4
2014-Aug-15 12:33N 58°43' W 003°31'1 0.5
2014-Aug-15 11:12N 58°42' W 003°30'1219.0
2014-Aug-15 10:33N 58°54' W 003°26'6 4.5
2014-Aug-15 09:20N 58°58' W 003°18'1012.5
2014-Aug-15 08:33N 58°50' W 003°28'5 2.4
2014-Aug-15 06:33N 58°45' W 003°30'1414.1
2014-Aug-15 05:33N 58°58' W 003°18'0 0.2
2014-Aug-15 04:33N 58°58' W 003°18'0 0.0
2014-Aug-15 03:33N 58°58' W 003°18'0 0.0
2014-Aug-15 02:33N 58°58' W 003°18'0 0.0
2014-Aug-15 01:32N 58°58' W 003°18'0 0.0
2014-Aug-15 00:33N 58°58' W 003°18'0 0.0
2014-Aug-14 23:32N 58°58' W 003°18'0 0.0
2014-Aug-14 22:33N 58°58' W 003°18'0 0.0
2014-Aug-14 21:33N 58°58' W 003°18'0 0.0
2014-Aug-14 20:33N 58°58' W 003°18'0 0.1
2014-Aug-14 19:33N 58°58' W 003°18'1414.3
2014-Aug-14 18:33N 58°45' W 003°30'4 1.9
2014-Aug-14 16:33N 58°48' W 003°29'1110.2
2014-Aug-14 15:29N 58°58' W 003°18'1 0.5
2014-Aug-14 13:33N 58°57' W 003°18'1515.2
2014-Aug-14 12:33N 58°43' W 003°30'3 2.2
2014-Aug-14 11:18N 58°40' W 003°31'1419.0
2014-Aug-14 10:33N 58°54' W 003°27'6 6.0
2014-Aug-14 09:33N 58°58' W 003°18'10 9.7
2014-Aug-14 08:33N 58°50' W 003°28'1313.3
2014-Aug-14 07:33N 58°37' W 003°32'8 8.4
2014-Aug-14 06:33N 58°45' W 003°30'1414.2
2014-Aug-14 05:33N 58°58' W 003°18'0 0.2
2014-Aug-14 04:33N 58°58' W 003°18'0 0.0
2014-Aug-14 03:33N 58°58' W 003°18'0 0.0
2014-Aug-14 02:33N 58°58' W 003°18'0 0.0
2014-Aug-14 01:33N 58°58' W 003°18'0 0.0
2014-Aug-14 00:33N 58°58' W 003°18'0 0.0
2014-Aug-13 23:33N 58°58' W 003°18'0 0.0
2014-Aug-13 22:33N 58°58' W 003°18'0 0.0
2014-Aug-13 21:33N 58°58' W 003°18'0 0.0
2014-Aug-13 20:33N 58°58' W 003°18'0 0.0
2014-Aug-13 19:33N 58°58' W 003°18'1212.4
2014-Aug-13 18:33N 58°47' W 003°29'0 0.2
2014-Aug-13 16:34N 58°47' W 003°29'1212.1
2014-Aug-13 15:33N 58°58' W 003°18'0 0.0
2014-Aug-13 14:33N 58°58' W 003°18'7 6.5
2014-Aug-13 13:33N 58°52' W 003°11'1313.2
2014-Aug-13 12:33N 58°41' W 003°25'3 1.9
2014-Aug-13 11:13N 58°42' W 003°30'1218.8
2014-Aug-13 10:34N 58°54' W 003°26'6 5.7
2014-Aug-13 09:33N 58°58' W 003°18'1212.1
2014-Aug-13 08:33N 58°47' W 003°09'1615.6
2014-Aug-13 07:33N 58°37' W 003°32'8 7.7
2014-Aug-13 06:33N 58°44' W 003°30'1514.9
2014-Aug-13 05:33N 58°58' W 003°18'0 0.2
2014-Aug-13 04:33N 58°58' W 003°18'0 0.0
2014-Aug-13 03:33N 58°58' W 003°18'0 0.0
2014-Aug-13 02:33N 58°58' W 003°18'0 0.0
2014-Aug-13 01:33N 58°58' W 003°18'0 0.0
2014-Aug-13 00:33N 58°58' W 003°18'0 0.0
2014-Aug-12 23:33N 58°58' W 003°18'0 0.0
2014-Aug-12 22:34N 58°58' W 003°18'0 0.0
2014-Aug-12 21:34N 58°58' W 003°18'0 0.0
2014-Aug-12 20:33N 58°58' W 003°18'0 0.0
2014-Aug-12 19:33N 58°58' W 003°18'1313.3
2014-Aug-12 18:33N 58°46' W 003°30'10 9.4
2014-Aug-12 17:33N 58°37' W 003°32'1413.9
2014-Aug-12 16:33N 58°50' W 003°29'9 9.2
2014-Aug-12 15:32N 58°58' W 003°18'0 0.0
2014-Aug-12 14:33N 58°58' W 003°18'1 1.0
2014-Aug-12 13:33N 58°57' W 003°18'1515.4
2014-Aug-12 12:33N 58°43' W 003°30'2 1.4
2014-Aug-12 11:13N 58°41' W 003°31'1218.7
2014-Aug-12 10:33N 58°53' W 003°28'7 6.9
2014-Aug-12 09:33N 58°58' W 003°18'1010.0
2014-Aug-12 08:33N 58°50' W 003°29'6 2.8
2014-Aug-12 06:33N 58°44' W 003°30'1515.1
2014-Aug-12 05:34N 58°58' W 003°18'0 0.3
2014-Aug-12 04:30N 58°58' W 003°18'0 0.0
2014-Aug-12 03:33N 58°58' W 003°18'0 0.0
2014-Aug-12 02:33N 58°58' W 003°18'0 0.0
2014-Aug-12 01:33N 58°58' W 003°18'0 0.0
2014-Aug-12 00:33N 58°58' W 003°18'0 0.0
2014-Aug-11 23:30N 58°58' W 003°18'0 0.0
2014-Aug-11 22:33N 58°58' W 003°18'0 0.0
2014-Aug-11 21:33N 58°58' W 003°18'0 0.0
2014-Aug-11 20:30N 58°58' W 003°18'0 0.0
2014-Aug-11 19:33N 58°58' W 003°18'1211.8
2014-Aug-11 18:33N 58°48' W 003°29'2 0.9
2014-Aug-11 16:33N 58°46' W 003°30'11 3.7
2014-Aug-11 13:33N 58°56' W 003°23'1717.2
2014-Aug-11 12:33N 58°40' W 003°31'1 0.6
2014-Aug-11 11:12N 58°41' W 003°31'1218.6
2014-Aug-11 10:33N 58°53' W 003°27'  

Dump ship's entire track history